sensor_id;sensor_type;location;lat;lon;timestamp;pressure;altitude;pressure_sealevel;temperature;humidity
62942;BME280;49042;47.318;19.874;2024-01-30T00:00:29;102876.91;;;-1.92;100.00
62942;BME280;49042;47.318;19.874;2024-01-30T00:03:31;102886.22;;;-1.92;100.00
62942;BME280;49042;47.318;19.874;2024-01-30T00:06:32;102884.41;;;-1.86;100.00
62942;BME280;49042;47.318;19.874;2024-01-30T00:09:34;102878.22;;;-1.74;100.00
62942;BME280;49042;47.318;19.874;2024-01-30T00:12:36;102893.19;;;-1.84;100.00
62942;BME280;49042;47.318;19.874;2024-01-30T00:15:38;102895.22;;;-1.81;100.00
62942;BME280;49042;47.318;19.874;2024-01-30T00:18:40;102894.63;;;-1.94;100.00
62942;BME280;49042;47.318;19.874;2024-01-30T00:21:42;102900.66;;;-1.93;100.00
62942;BME280;49042;47.318;19.874;2024-01-30T00:24:43;102901.53;;;-2.00;100.00
62942;BME280;49042;47.318;19.874;2024-01-30T00:27:45;102903.00;;;-2.02;100.00
62942;BME280;49042;47.318;19.874;2024-01-30T00:30:47;102896.59;;;-2.06;100.00
62942;BME280;49042;47.318;19.874;2024-01-30T00:33:49;102902.06;;;-2.10;100.00
62942;BME280;49042;47.318;19.874;2024-01-30T00:36:51;102903.53;;;-2.05;100.00
62942;BME280;49042;47.318;19.874;2024-01-30T00:39:52;102905.03;;;-1.99;100.00
62942;BME280;49042;47.318;19.874;2024-01-30T00:42:54;102903.63;;;-1.75;100.00
62942;BME280;49042;47.318;19.874;2024-01-30T00:45:56;102911.47;;;-1.81;100.00
62942;BME280;49042;47.318;19.874;2024-01-30T00:48:58;102905.59;;;-1.87;100.00
62942;BME280;49042;47.318;19.874;2024-01-30T00:52:00;102907.41;;;-1.94;100.00
62942;BME280;49042;47.318;19.874;2024-01-30T00:55:02;102899.59;;;-1.80;100.00
62942;BME280;49042;47.318;19.874;2024-01-30T00:58:04;102894.06;;;-1.98;100.00
62942;BME280;49042;47.318;19.874;2024-01-30T01:01:06;102905.66;;;-2.30;100.00
62942;BME280;49042;47.318;19.874;2024-01-30T01:04:09;102905.19;;;-2.05;100.00
62942;BME280;49042;47.318;19.874;2024-01-30T01:07:11;102900.94;;;-2.19;100.00
62942;BME280;49042;47.318;19.874;2024-01-30T01:10:13;102909.00;;;-2.51;100.00
62942;BME280;49042;47.318;19.874;2024-01-30T01:13:15;102907.38;;;-2.43;100.00
62942;BME280;49042;47.318;19.874;2024-01-30T01:16:17;102899.88;;;-2.49;100.00
62942;BME280;49042;47.318;19.874;2024-01-30T01:19:19;102897.53;;;-2.48;100.00
62942;BME280;49042;47.318;19.874;2024-01-30T01:22:21;102894.75;;;-2.49;100.00
62942;BME280;49042;47.318;19.874;2024-01-30T01:25:22;102885.41;;;-2.56;100.00
62942;BME280;49042;47.318;19.874;2024-01-30T01:28:24;102895.09;;;-2.53;100.00
62942;BME280;49042;47.318;19.874;2024-01-30T01:31:26;102896.47;;;-2.70;100.00
62942;BME280;49042;47.318;19.874;2024-01-30T01:34:31;102897.94;;;-2.65;100.00
62942;BME280;49042;47.318;19.874;2024-01-30T01:37:33;102891.16;;;-2.44;100.00
62942;BME280;49042;47.318;19.874;2024-01-30T01:40:35;102899.66;;;-2.58;100.00
62942;BME280;49042;47.318;19.874;2024-01-30T01:43:36;102895.81;;;-2.62;100.00
62942;BME280;49042;47.318;19.874;2024-01-30T01:46:40;102886.78;;;-2.73;100.00
62942;BME280;49042;47.318;19.874;2024-01-30T01:49:42;102892.47;;;-2.68;100.00
62942;BME280;49042;47.318;19.874;2024-01-30T01:52:50;102880.87;;;-2.86;100.00
62942;BME280;49042;47.318;19.874;2024-01-30T01:55:52;102878.88;;;-2.82;100.00
62942;BME280;49042;47.318;19.874;2024-01-30T01:58:55;102880.38;;;-3.04;100.00
62942;BME280;49042;47.318;19.874;2024-01-30T02:01:57;102879.47;;;-3.05;100.00
62942;BME280;49042;47.318;19.874;2024-01-30T02:04:59;102881.91;;;-2.92;100.00
62942;BME280;49042;47.318;19.874;2024-01-30T02:08:01;102873.72;;;-2.89;100.00
62942;BME280;49042;47.318;19.874;2024-01-30T02:11:03;102873.97;;;-2.80;100.00
62942;BME280;49042;47.318;19.874;2024-01-30T02:14:05;102880.87;;;-2.86;100.00
62942;BME280;49042;47.318;19.874;2024-01-30T02:17:07;102880.28;;;-2.63;100.00
62942;BME280;49042;47.318;19.874;2024-01-30T02:20:09;102872.50;;;-2.78;100.00
62942;BME280;49042;47.318;19.874;2024-01-30T02:23:12;102871.00;;;-2.91;100.00
62942;BME280;49042;47.318;19.874;2024-01-30T02:26:14;102874.47;;;-2.90;100.00
62942;BME280;49042;47.318;19.874;2024-01-30T02:29:15;102879.22;;;-2.86;100.00
62942;BME280;49042;47.318;19.874;2024-01-30T02:32:17;102878.88;;;-2.82;100.00
62942;BME280;49042;47.318;19.874;2024-01-30T02:35:19;102885.50;;;-2.76;100.00
62942;BME280;49042;47.318;19.874;2024-01-30T02:38:21;102882.94;;;-2.76;100.00
62942;BME280;49042;47.318;19.874;2024-01-30T02:41:22;102880.84;;;-2.59;100.00
62942;BME280;49042;47.318;19.874;2024-01-30T02:44:24;102884.06;;;-2.67;100.00
62942;BME280;49042;47.318;19.874;2024-01-30T02:47:26;102880.38;;;-2.76;100.00
62942;BME280;49042;47.318;19.874;2024-01-30T02:50:28;102882.69;;;-2.85;100.00
62942;BME280;49042;47.318;19.874;2024-01-30T02:53:29;102883.13;;;-2.75;100.00
62942;BME280;49042;47.318;19.874;2024-01-30T02:56:31;102885.81;;;-2.81;100.00
62942;BME280;49042;47.318;19.874;2024-01-30T02:59:33;102894.03;;;-2.83;100.00
62942;BME280;49042;47.318;19.874;2024-01-30T03:02:37;102886.88;;;-2.86;100.00
62942;BME280;49042;47.318;19.874;2024-01-30T03:05:39;102891.59;;;-2.89;100.00
62942;BME280;49042;47.318;19.874;2024-01-30T03:08:40;102889.34;;;-3.01;100.00
62942;BME280;49042;47.318;19.874;2024-01-30T03:11:42;102885.22;;;-3.13;100.00
62942;BME280;49042;47.318;19.874;2024-01-30T03:14:44;102886.75;;;-3.08;100.00
62942;BME280;49042;47.318;19.874;2024-01-30T03:17:46;102883.47;;;-3.27;100.00
62942;BME280;49042;47.318;19.874;2024-01-30T03:20:47;102887.53;;;-3.22;100.00
62942;BME280;49042;47.318;19.874;2024-01-30T03:23:49;102882.69;;;-3.34;100.00
62942;BME280;49042;47.318;19.874;2024-01-30T03:26:51;102880.63;;;-3.44;100.00
62942;BME280;49042;47.318;19.874;2024-01-30T03:29:53;102879.44;;;-3.33;100.00
62942;BME280;49042;47.318;19.874;2024-01-30T03:32:54;102886.03;;;-3.48;100.00
62942;BME280;49042;47.318;19.874;2024-01-30T03:35:56;102879.50;;;-3.46;100.00
62942;BME280;49042;47.318;19.874;2024-01-30T03:38:58;102885.31;;;-3.26;100.00
62942;BME280;49042;47.318;19.874;2024-01-30T03:42:00;102875.81;;;-3.27;100.00
62942;BME280;49042;47.318;19.874;2024-01-30T03:45:02;102877.37;;;-3.35;100.00
62942;BME280;49042;47.318;19.874;2024-01-30T03:48:04;102874.34;;;-3.33;100.00
62942;BME280;49042;47.318;19.874;2024-01-30T03:51:06;102870.19;;;-3.25;100.00
62942;BME280;49042;47.318;19.874;2024-01-30T03:54:07;102867.63;;;-3.25;100.00
62942;BME280;49042;47.318;19.874;2024-01-30T03:57:09;102870.47;;;-3.36;100.00
62942;BME280;49042;47.318;19.874;2024-01-30T04:00:11;102873.97;;;-3.28;100.00
62942;BME280;49042;47.318;19.874;2024-01-30T04:03:16;102871.72;;;-3.40;100.00
62942;BME280;49042;47.318;19.874;2024-01-30T04:06:18;102877.56;;;-3.13;100.00
62942;BME280;49042;47.318;19.874;2024-01-30T04:09:19;102874.72;;;-3.29;100.00
62942;BME280;49042;47.318;19.874;2024-01-30T04:12:21;102872.72;;;-3.25;100.00
62942;BME280;49042;47.318;19.874;2024-01-30T04:15:23;102871.84;;;-3.25;100.00
62942;BME280;49042;47.318;19.874;2024-01-30T04:18:25;102867.25;;;-3.28;100.00
62942;BME280;49042;47.318;19.874;2024-01-30T04:21:26;102872.09;;;-3.37;100.00
62942;BME280;49042;47.318;19.874;2024-01-30T04:24:28;102869.75;;;-3.56;100.00
62942;BME280;49042;47.318;19.874;2024-01-30T04:27:30;102871.50;;;-3.41;100.00
62942;BME280;49042;47.318;19.874;2024-01-30T04:30:31;102873.59;;;-3.52;100.00
62942;BME280;49042;47.318;19.874;2024-01-30T04:33:33;102877.59;;;-3.34;100.00
62942;BME280;49042;47.318;19.874;2024-01-30T04:36:35;102880.16;;;-3.34;100.00
62942;BME280;49042;47.318;19.874;2024-01-30T04:39:37;102870.97;;;-3.39;100.00
62942;BME280;49042;47.318;19.874;2024-01-30T04:42:39;102871.91;;;-3.59;100.00
62942;BME280;49042;47.318;19.874;2024-01-30T04:45:41;102865.94;;;-3.52;100.00
62942;BME280;49042;47.318;19.874;2024-01-30T04:48:43;102871.91;;;-3.38;100.00
62942;BME280;49042;47.318;19.874;2024-01-30T04:51:45;102867.66;;;-3.45;100.00
62942;BME280;49042;47.318;19.874;2024-01-30T04:54:46;102871.19;;;-3.37;100.00
62942;BME280;49042;47.318;19.874;2024-01-30T04:57:48;102870.87;;;-3.53;100.00
62942;BME280;49042;47.318;19.874;2024-01-30T05:00:50;102873.47;;;-3.46;100.00
62942;BME280;49042;47.318;19.874;2024-01-30T05:03:53;102870.44;;;-3.57;100.00
62942;BME280;49042;47.318;19.874;2024-01-30T05:06:55;102868.97;;;-3.62;100.00
62942;BME280;49042;47.318;19.874;2024-01-30T05:09:57;102866.66;;;-3.73;100.00
62942;BME280;49042;47.318;19.874;2024-01-30T05:13:00;102871.91;;;-3.79;100.00
62942;BME280;49042;47.318;19.874;2024-01-30T05:16:02;102872.22;;;-3.83;100.00
62942;BME280;49042;47.318;19.874;2024-01-30T05:19:05;102864.25;;;-3.79;100.00
62942;BME280;49042;47.318;19.874;2024-01-30T05:22:07;102867.75;;;-3.92;100.00
62942;BME280;49042;47.318;19.874;2024-01-30T05:25:09;102871.09;;;-3.85;100.00
62942;BME280;49042;47.318;19.874;2024-01-30T05:28:11;102876.22;;;-3.85;100.00
62942;BME280;49042;47.318;19.874;2024-01-30T05:31:12;102872.53;;;-3.88;100.00
62942;BME280;49042;47.318;19.874;2024-01-30T05:34:14;102876.03;;;-4.00;100.00
62942;BME280;49042;47.318;19.874;2024-01-30T05:37:16;102877.06;;;-4.05;100.00
62942;BME280;49042;47.318;19.874;2024-01-30T05:40:19;102880.28;;;-4.27;100.00
62942;BME280;49042;47.318;19.874;2024-01-30T05:43:21;102876.12;;;-4.39;100.00
62942;BME280;49042;47.318;19.874;2024-01-30T05:46:23;102876.94;;;-4.46;100.00
62942;BME280;49042;47.318;19.874;2024-01-30T05:49:26;102876.31;;;-4.38;100.00
62942;BME280;49042;47.318;19.874;2024-01-30T05:52:28;102880.50;;;-4.25;100.00
62942;BME280;49042;47.318;19.874;2024-01-30T05:55:30;102881.91;;;-4.14;100.00
62942;BME280;49042;47.318;19.874;2024-01-30T05:58:31;102886.56;;;-4.04;100.00
62942;BME280;49042;47.318;19.874;2024-01-30T06:01:33;102883.03;;;-4.25;100.00
62942;BME280;49042;47.318;19.874;2024-01-30T06:04:36;102889.03;;;-4.12;100.00
62942;BME280;49042;47.318;19.874;2024-01-30T06:07:38;102885.69;;;-4.18;100.00
62942;BME280;49042;47.318;19.874;2024-01-30T06:10:40;102890.13;;;-4.10;100.00
62942;BME280;49042;47.318;19.874;2024-01-30T06:13:42;102896.97;;;-4.16;100.00
62942;BME280;49042;47.318;19.874;2024-01-30T06:16:44;102890.34;;;-4.08;100.00
62942;BME280;49042;47.318;19.874;2024-01-30T06:19:45;102902.06;;;-4.03;100.00
62942;BME280;49042;47.318;19.874;2024-01-30T06:22:47;102902.81;;;-3.83;100.00
62942;BME280;49042;47.318;19.874;2024-01-30T06:25:49;102902.59;;;-3.85;100.00
62942;BME280;49042;47.318;19.874;2024-01-30T06:28:50;102898.47;;;-3.98;100.00
62942;BME280;49042;47.318;19.874;2024-01-30T06:31:52;102900.03;;;-3.72;100.00
62942;BME280;49042;47.318;19.874;2024-01-30T06:34:54;102899.12;;;-3.52;100.00
62942;BME280;49042;47.318;19.874;2024-01-30T06:37:56;102906.69;;;-3.59;100.00
62942;BME280;49042;47.318;19.874;2024-01-30T06:40:57;102903.22;;;-3.60;100.00
62942;BME280;49042;47.318;19.874;2024-01-30T06:43:59;102903.69;;;-3.49;100.00
62942;BME280;49042;47.318;19.874;2024-01-30T06:47:01;102904.34;;;-3.17;100.00
62942;BME280;49042;47.318;19.874;2024-01-30T06:50:03;102905.78;;;-2.98;100.00
62942;BME280;49042;47.318;19.874;2024-01-30T06:53:05;102909.53;;;-2.82;100.00
62942;BME280;49042;47.318;19.874;2024-01-30T06:56:06;102908.22;;;-2.58;100.00
62942;BME280;49042;47.318;19.874;2024-01-30T06:59:09;102901.44;;;-2.22;100.00
62942;BME280;49042;47.318;19.874;2024-01-30T07:02:11;102905.19;;;-2.05;100.00
62942;BME280;49042;47.318;19.874;2024-01-30T07:05:13;102908.44;;;-2.13;100.00
62942;BME280;49042;47.318;19.874;2024-01-30T07:08:16;102913.06;;;-2.39;100.00
62942;BME280;49042;47.318;19.874;2024-01-30T07:11:21;102916.56;;;-2.38;100.00
62942;BME280;49042;47.318;19.874;2024-01-30T07:14:24;102907.47;;;-2.29;100.00
62942;BME280;49042;47.318;19.874;2024-01-30T07:17:26;102920.84;;;-1.45;100.00
62942;BME280;49042;47.318;19.874;2024-01-30T07:20:27;102915.75;;;-0.86;100.00
62942;BME280;49042;47.318;19.874;2024-01-30T07:23:32;102914.16;;;-0.33;100.00
62942;BME280;49042;47.318;19.874;2024-01-30T07:26:35;102917.09;;;0.40;100.00
62942;BME280;49042;47.318;19.874;2024-01-30T07:29:37;102914.37;;;1.09;100.00
62942;BME280;49042;47.318;19.874;2024-01-30T07:32:39;102914.81;;;1.86;100.00
62942;BME280;49042;47.318;19.874;2024-01-30T07:35:40;102910.69;;;2.80;100.00
62942;BME280;49042;47.318;19.874;2024-01-30T07:38:42;102908.44;;;3.44;95.82
62942;BME280;49042;47.318;19.874;2024-01-30T07:41:44;102906.00;;;4.81;81.86
62942;BME280;49042;47.318;19.874;2024-01-30T07:44:46;102904.28;;;6.75;61.53
62942;BME280;49042;47.318;19.874;2024-01-30T07:47:50;102911.63;;;7.11;57.30
62942;BME280;49042;47.318;19.874;2024-01-30T07:50:52;102904.16;;;8.33;51.49
62942;BME280;49042;47.318;19.874;2024-01-30T07:53:54;102904.44;;;8.59;51.11
62942;BME280;49042;47.318;19.874;2024-01-30T07:56:56;102901.75;;;9.14;47.02
62942;BME280;49042;47.318;19.874;2024-01-30T07:59:58;102900.44;;;8.19;49.56
62942;BME280;49042;47.318;19.874;2024-01-30T08:03:00;102910.00;;;9.79;48.05
62942;BME280;49042;47.318;19.874;2024-01-30T08:06:01;102901.22;;;11.81;42.08
62942;BME280;49042;47.318;19.874;2024-01-30T08:09:03;102888.59;;;12.57;39.50
62942;BME280;49042;47.318;19.874;2024-01-30T08:12:06;102896.81;;;13.67;38.37
62942;BME280;49042;47.318;19.874;2024-01-30T08:15:08;102893.09;;;14.10;38.18
62942;BME280;49042;47.318;19.874;2024-01-30T08:18:10;102888.81;;;15.47;35.91
62942;BME280;49042;47.318;19.874;2024-01-30T08:21:12;102891.16;;;16.92;33.42
62942;BME280;49042;47.318;19.874;2024-01-30T08:24:14;102900.47;;;15.70;34.54
62942;BME280;49042;47.318;19.874;2024-01-30T08:27:16;102903.19;;;15.54;33.92
62942;BME280;49042;47.318;19.874;2024-01-30T08:30:17;102906.34;;;14.94;34.44
62942;BME280;49042;47.318;19.874;2024-01-30T08:33:19;102900.78;;;16.32;33.34
62942;BME280;49042;47.318;19.874;2024-01-30T08:36:21;102904.25;;;15.76;33.29
62942;BME280;49042;47.318;19.874;2024-01-30T08:39:23;102912.75;;;14.02;35.36
62942;BME280;49042;47.318;19.874;2024-01-30T08:42:24;102907.25;;;13.97;36.28
62942;BME280;49042;47.318;19.874;2024-01-30T08:45:27;102898.44;;;15.46;34.15
62942;BME280;49042;47.318;19.874;2024-01-30T08:48:28;102907.13;;;16.17;33.25
62942;BME280;49042;47.318;19.874;2024-01-30T08:51:30;102908.37;;;17.90;31.63
62942;BME280;49042;47.318;19.874;2024-01-30T08:54:32;102899.16;;;20.05;28.58
62942;BME280;49042;47.318;19.874;2024-01-30T08:57:35;102900.22;;;18.52;29.52
62942;BME280;49042;47.318;19.874;2024-01-30T09:00:37;102894.34;;;19.63;28.54
62942;BME280;49042;47.318;19.874;2024-01-30T09:03:39;102892.34;;;21.06;27.01
62942;BME280;49042;47.318;19.874;2024-01-30T09:06:42;102900.72;;;19.70;27.51
62942;BME280;49042;47.318;19.874;2024-01-30T09:09:44;102902.28;;;16.26;31.76
62942;BME280;49042;47.318;19.874;2024-01-30T09:12:47;102904.59;;;15.47;34.06
62942;BME280;49042;47.318;19.874;2024-01-30T09:15:49;102908.63;;;13.45;36.50
62942;BME280;49042;47.318;19.874;2024-01-30T09:18:50;102902.19;;;10.27;42.83
62942;BME280;49042;47.318;19.874;2024-01-30T09:21:52;102902.00;;;10.62;42.94
62942;BME280;49042;47.318;19.874;2024-01-30T09:24:54;102901.59;;;9.01;47.77
62942;BME280;49042;47.318;19.874;2024-01-30T09:27:56;102910.97;;;7.66;59.71
62942;BME280;49042;47.318;19.874;2024-01-30T09:30:57;102908.03;;;6.69;78.17
62942;BME280;49042;47.318;19.874;2024-01-30T09:33:59;102909.91;;;7.64;76.37
62942;BME280;49042;47.318;19.874;2024-01-30T09:37:01;102911.88;;;7.46;75.80
62942;BME280;49042;47.318;19.874;2024-01-30T09:40:04;102920.47;;;7.13;78.65
62942;BME280;49042;47.318;19.874;2024-01-30T09:43:06;102916.84;;;6.30;89.30
62942;BME280;49042;47.318;19.874;2024-01-30T09:46:11;102913.41;;;6.91;84.46
62942;BME280;49042;47.318;19.874;2024-01-30T09:49:15;102920.38;;;6.12;95.52
62942;BME280;49042;47.318;19.874;2024-01-30T09:52:20;102912.00;;;6.95;92.32
62942;BME280;49042;47.318;19.874;2024-01-30T09:55:22;102915.53;;;7.27;83.82
62942;BME280;49042;47.318;19.874;2024-01-30T09:58:24;102924.28;;;5.59;100.00
62942;BME280;49042;47.318;19.874;2024-01-30T10:01:27;102906.47;;;6.30;100.00
62942;BME280;49042;47.318;19.874;2024-01-30T10:04:30;102908.44;;;6.73;93.75
62942;BME280;49042;47.318;19.874;2024-01-30T10:07:31;102913.41;;;5.24;100.00
62942;BME280;49042;47.318;19.874;2024-01-30T10:10:34;102916.06;;;5.06;100.00
62942;BME280;49042;47.318;19.874;2024-01-30T10:13:38;102910.06;;;5.25;100.00
62942;BME280;49042;47.318;19.874;2024-01-30T10:16:40;102919.81;;;5.47;100.00
62942;BME280;49042;47.318;19.874;2024-01-30T10:19:42;102920.00;;;4.74;100.00
62942;BME280;49042;47.318;19.874;2024-01-30T10:22:44;102911.63;;;4.22;100.00
62942;BME280;49042;47.318;19.874;2024-01-30T10:25:47;102910.81;;;4.49;100.00
62942;BME280;49042;47.318;19.874;2024-01-30T10:28:49;102908.31;;;3.96;100.00
62942;BME280;49042;47.318;19.874;2024-01-30T10:31:58;102895.09;;;5.31;100.00
62942;BME280;49042;47.318;19.874;2024-01-30T10:35:01;102901.81;;;4.64;100.00
62942;BME280;49042;47.318;19.874;2024-01-30T10:38:04;102896.00;;;5.51;100.00
62942;BME280;49042;47.318;19.874;2024-01-30T10:41:08;102893.69;;;6.13;100.00
62942;BME280;49042;47.318;19.874;2024-01-30T10:44:10;102883.53;;;6.75;100.00
62942;BME280;49042;47.318;19.874;2024-01-30T10:47:14;102880.44;;;7.53;97.46
62942;BME280;49042;47.318;19.874;2024-01-30T10:50:20;102880.50;;;8.52;85.23
62942;BME280;49042;47.318;19.874;2024-01-30T10:53:22;102876.75;;;7.82;90.25
62942;BME280;49042;47.318;19.874;2024-01-30T10:56:25;102875.34;;;8.19;86.91
62942;BME280;49042;47.318;19.874;2024-01-30T10:59:27;102880.06;;;5.85;100.00
62942;BME280;49042;47.318;19.874;2024-01-30T11:02:30;102880.69;;;6.83;100.00
62942;BME280;49042;47.318;19.874;2024-01-30T11:05:33;102875.41;;;5.62;100.00
62942;BME280;49042;47.318;19.874;2024-01-30T11:08:35;102874.88;;;5.66;100.00
62942;BME280;49042;47.318;19.874;2024-01-30T11:11:57;102872.03;;;4.58;100.00
62942;BME280;49042;47.318;19.874;2024-01-30T11:15:07;102876.41;;;4.68;100.00
62942;BME280;49042;47.318;19.874;2024-01-30T11:18:10;102872.53;;;4.82;100.00
62942;BME280;49042;47.318;19.874;2024-01-30T11:21:13;102875.53;;;3.86;100.00
62942;BME280;49042;47.318;19.874;2024-01-30T11:24:15;102885.34;;;3.10;100.00
62942;BME280;49042;47.318;19.874;2024-01-30T11:27:17;102883.69;;;4.26;100.00
62942;BME280;49042;47.318;19.874;2024-01-30T11:30:26;102876.75;;;3.54;100.00
62942;BME280;49042;47.318;19.874;2024-01-30T11:33:29;102880.47;;;3.22;100.00
62942;BME280;49042;47.318;19.874;2024-01-30T11:36:36;102882.06;;;2.52;100.00
62942;BME280;49042;47.318;19.874;2024-01-30T11:39:39;102875.38;;;3.58;100.00
62942;BME280;49042;47.318;19.874;2024-01-30T11:42:43;102868.25;;;4.46;100.00
62942;BME280;49042;47.318;19.874;2024-01-30T11:45:45;102861.94;;;5.46;100.00
62942;BME280;49042;47.318;19.874;2024-01-30T11:48:48;102842.88;;;6.45;100.00
62942;BME280;49042;47.318;19.874;2024-01-30T11:51:50;102837.75;;;6.15;100.00
62942;BME280;49042;47.318;19.874;2024-01-30T11:54:53;102834.38;;;4.80;100.00
62942;BME280;49042;47.318;19.874;2024-01-30T11:57:55;102839.22;;;5.72;100.00
62942;BME280;49042;47.318;19.874;2024-01-30T12:00:57;102834.72;;;5.22;100.00
62942;BME280;49042;47.318;19.874;2024-01-30T12:04:00;102824.94;;;5.48;100.00
62942;BME280;49042;47.318;19.874;2024-01-30T12:07:01;102829.06;;;3.95;100.00
62942;BME280;49042;47.318;19.874;2024-01-30T12:10:05;102830.16;;;4.71;100.00
62942;BME280;49042;47.318;19.874;2024-01-30T12:13:07;102815.50;;;4.81;100.00
62942;BME280;49042;47.318;19.874;2024-01-30T12:16:09;102823.53;;;5.32;100.00
62942;BME280;49042;47.318;19.874;2024-01-30T12:19:11;102817.59;;;5.52;100.00
62942;BME280;49042;47.318;19.874;2024-01-30T12:22:22;102809.53;;;6.18;100.00
62942;BME280;49042;47.318;19.874;2024-01-30T12:25:24;102802.34;;;5.36;100.00
62942;BME280;49042;47.318;19.874;2024-01-30T12:28:26;102806.84;;;3.97;100.00
62942;BME280;49042;47.318;19.874;2024-01-30T12:31:28;102805.28;;;5.79;100.00
62942;BME280;49042;47.318;19.874;2024-01-30T12:34:30;102790.09;;;7.49;100.00
62942;BME280;49042;47.318;19.874;2024-01-30T12:37:37;102787.53;;;7.28;100.00
62942;BME280;49042;47.318;19.874;2024-01-30T12:40:39;102787.38;;;6.21;100.00
62942;BME280;49042;47.318;19.874;2024-01-30T12:43:42;102782.84;;;6.29;100.00
62942;BME280;49042;47.318;19.874;2024-01-30T12:46:46;102764.56;;;7.76;100.00
62942;BME280;49042;47.318;19.874;2024-01-30T12:49:49;102765.19;;;10.58;73.78
62942;BME280;49042;47.318;19.874;2024-01-30T12:52:54;102761.34;;;10.53;64.82
62942;BME280;49042;47.318;19.874;2024-01-30T12:55:57;102749.22;;;12.04;57.57
62942;BME280;49042;47.318;19.874;2024-01-30T12:58:59;102752.47;;;12.72;52.12
62942;BME280;49042;47.318;19.874;2024-01-30T13:02:01;102747.72;;;15.47;42.90
62942;BME280;49042;47.318;19.874;2024-01-30T13:05:04;102749.31;;;12.19;47.80
62942;BME280;49042;47.318;19.874;2024-01-30T13:08:07;102746.47;;;12.29;50.88
62942;BME280;49042;47.318;19.874;2024-01-30T13:11:08;102746.72;;;12.19;50.35
62942;BME280;49042;47.318;19.874;2024-01-30T13:14:21;102741.19;;;11.44;51.31
62942;BME280;49042;47.318;19.874;2024-01-30T13:17:23;102745.13;;;7.93;82.94
62942;BME280;49042;47.318;19.874;2024-01-30T13:20:25;102743.88;;;8.80;85.92
62942;BME280;49042;47.318;19.874;2024-01-30T13:23:27;102741.84;;;7.30;100.00
62942;BME280;49042;47.318;19.874;2024-01-30T13:26:29;102742.16;;;6.28;100.00
62942;BME280;49042;47.318;19.874;2024-01-30T13:29:32;102736.13;;;6.08;100.00
62942;BME280;49042;47.318;19.874;2024-01-30T13:32:34;102745.25;;;5.94;100.00
62942;BME280;49042;47.318;19.874;2024-01-30T13:35:36;102729.47;;;6.02;100.00
62942;BME280;49042;47.318;19.874;2024-01-30T13:38:38;102744.94;;;5.40;100.00
62942;BME280;49042;47.318;19.874;2024-01-30T13:41:43;102742.34;;;5.21;100.00
62942;BME280;49042;47.318;19.874;2024-01-30T13:44:45;102747.22;;;4.98;100.00
62942;BME280;49042;47.318;19.874;2024-01-30T13:47:47;102749.38;;;4.74;100.00
62942;BME280;49042;47.318;19.874;2024-01-30T13:50:49;102742.13;;;5.28;100.00
62942;BME280;49042;47.318;19.874;2024-01-30T13:53:51;102743.97;;;5.29;100.00
62942;BME280;49042;47.318;19.874;2024-01-30T13:56:53;102740.44;;;5.29;100.00
62942;BME280;49042;47.318;19.874;2024-01-30T13:59:55;102743.84;;;3.95;100.00
62942;BME280;49042;47.318;19.874;2024-01-30T14:02:56;102745.22;;;3.82;100.00
62942;BME280;49042;47.318;19.874;2024-01-30T14:06:00;102754.25;;;3.15;100.00
62942;BME280;49042;47.318;19.874;2024-01-30T14:09:02;102765.34;;;3.40;100.00
62942;BME280;49042;47.318;19.874;2024-01-30T14:12:09;102763.09;;;2.47;100.00
62942;BME280;49042;47.318;19.874;2024-01-30T14:15:11;102760.00;;;2.94;100.00
62942;BME280;49042;47.318;19.874;2024-01-30T14:18:28;102766.09;;;2.43;100.00
62942;BME280;49042;47.318;19.874;2024-01-30T14:21:29;102756.25;;;2.39;100.00
62942;BME280;49042;47.318;19.874;2024-01-30T14:24:31;102762.19;;;2.55;100.00
62942;BME280;49042;47.318;19.874;2024-01-30T14:27:33;102759.25;;;2.34;100.00
62942;BME280;49042;47.318;19.874;2024-01-30T14:30:34;102757.69;;;2.19;100.00
62942;BME280;49042;47.318;19.874;2024-01-30T14:33:37;102757.50;;;2.17;100.00
62942;BME280;49042;47.318;19.874;2024-01-30T14:36:41;102757.59;;;2.01;100.00
62942;BME280;49042;47.318;19.874;2024-01-30T14:39:43;102758.81;;;1.54;100.00
62942;BME280;49042;47.318;19.874;2024-01-30T14:42:45;102754.75;;;1.56;100.00
62942;BME280;49042;47.318;19.874;2024-01-30T14:45:47;102756.53;;;1.74;100.00
62942;BME280;49042;47.318;19.874;2024-01-30T14:48:51;102759.28;;;1.75;100.00
62942;BME280;49042;47.318;19.874;2024-01-30T14:51:53;102745.81;;;1.78;100.00
62942;BME280;49042;47.318;19.874;2024-01-30T14:54:55;102751.00;;;1.62;100.00
62942;BME280;49042;47.318;19.874;2024-01-30T14:57:57;102748.06;;;2.00;100.00
62942;BME280;49042;47.318;19.874;2024-01-30T15:01:00;102753.78;;;1.47;100.00
62942;BME280;49042;47.318;19.874;2024-01-30T15:04:02;102754.00;;;1.57;100.00
62942;BME280;49042;47.318;19.874;2024-01-30T15:07:04;102752.81;;;1.37;100.00
62942;BME280;49042;47.318;19.874;2024-01-30T15:10:10;102747.12;;;1.49;100.00
62942;BME280;49042;47.318;19.874;2024-01-30T15:13:12;102747.25;;;1.25;100.00
62942;BME280;49042;47.318;19.874;2024-01-30T15:16:14;102747.53;;;1.03;100.00
62942;BME280;49042;47.318;19.874;2024-01-30T15:19:16;102747.19;;;1.00;100.00
62942;BME280;49042;47.318;19.874;2024-01-30T15:22:18;102743.03;;;1.10;100.00
62942;BME280;49042;47.318;19.874;2024-01-30T15:25:20;102742.94;;;0.68;100.00
62942;BME280;49042;47.318;19.874;2024-01-30T15:28:38;102744.00;;;0.54;100.00
62942;BME280;49042;47.318;19.874;2024-01-30T15:31:40;102750.78;;;0.77;100.00
62942;BME280;49042;47.318;19.874;2024-01-30T15:34:42;102741.44;;;0.54;100.00